Airfield :
LOGIN :

Register | Disclaimer

   EN    FR    IT 

 










Legend :    VFR   Marginal VFR   IFR   Intensive IFR   Very Intensive IFR
Visi :
Ceiling :
>= 8 km
>= 3000ft
5 to 8 km
1000 to 3000 ft
1500m to 5 km
500 to 1000 ft
800 to 1500m
200 to 500 ft
< 800m
< 200 ft
Symbols :   Thunderstorms  Fog  Heavy snow  Heavy precipitations  Wind > 20 kt
SIGMETs :     Misc.  Thunderstorms  Icing  Turbulence  Mountain Waves  Volcanic Ashes






- Airport Elevation : 68 ft
- IATA code : AGH


ESTA - Ängelholm-Helsingborg

CURRENT METAR :
  • 191220Z 07008KT 9999 FEW033 BKN049 12/05 Q1022

EXPIRED METARs :
  • 191150Z 06009KT 9999 FEW033 BKN046 12/06 Q1022
  • 191120Z 08005KT 9999 FEW031 BKN047 12/05 Q1022
  • 191050Z 09008KT 9999 FEW025 OVC053 12/05 Q1022
  • 191020Z AUTO 08010KT 9999 FEW024/// OVC051/// 12/06 Q1022

TAF TAF ESTA
Valid from the 19 at 12:00 until the 19 at 21:00 UTC


191107Z 1912/1921 08010KT 9999 SCT030 BKN040



MET'MAP, your aeronautical weather chart ! - Copyright ORBIFLY December 2007 - Disclaimer

ORBIFLY MET'MAP TEAM :

Programming & Development : Alexandra Zaïnal
Concept & original design : Baudouin d'Aumeries
Assistance for programming : Marc-Olivier Méhu
Technical & hardware support : Manuel Goepfert

Contact : metmap@orbifly.com




SOURCES & CREDITS :

   NOAA